sensor_id;sensor_type;location;lat;lon;timestamp;P1;durP1;ratioP1;P2;durP2;ratioP2
12290;SDS011;6208;48.956;9.076;2023-04-01T00:01:21;1.55;;;0.80;;
12290;SDS011;6208;48.956;9.076;2023-04-01T00:04:05;1.02;;;0.60;;
12290;SDS011;6208;48.956;9.076;2023-04-01T00:06:50;1.00;;;0.55;;
12290;SDS011;6208;48.956;9.076;2023-04-01T00:09:35;2.78;;;0.77;;
12290;SDS011;6208;48.956;9.076;2023-04-01T00:12:19;1.30;;;0.80;;
12290;SDS011;6208;48.956;9.076;2023-04-01T00:15:04;2.15;;;0.80;;
12290;SDS011;6208;48.956;9.076;2023-04-01T00:17:50;3.00;;;1.05;;
12290;SDS011;6208;48.956;9.076;2023-04-01T00:20:34;2.75;;;0.80;;
12290;SDS011;6208;48.956;9.076;2023-04-01T00:23:19;1.63;;;0.95;;
12290;SDS011;6208;48.956;9.076;2023-04-01T00:26:04;0.95;;;0.75;;
12290;SDS011;6208;48.956;9.076;2023-04-01T00:28:49;2.90;;;0.90;;
12290;SDS011;6208;48.956;9.076;2023-04-01T00:31:34;1.58;;;0.82;;
12290;SDS011;6208;48.956;9.076;2023-04-01T00:34:18;0.70;;;0.70;;
12290;SDS011;6208;48.956;9.076;2023-04-01T00:37:02;2.38;;;0.90;;
12290;SDS011;6208;48.956;9.076;2023-04-01T00:39:46;2.78;;;0.90;;
12290;SDS011;6208;48.956;9.076;2023-04-01T00:42:31;3.20;;;1.00;;
12290;SDS011;6208;48.956;9.076;2023-04-01T00:45:25;3.70;;;1.02;;
12290;SDS011;6208;48.956;9.076;2023-04-01T00:48:14;2.30;;;1.00;;
12290;SDS011;6208;48.956;9.076;2023-04-01T00:51:05;3.33;;;0.90;;
12290;SDS011;6208;48.956;9.076;2023-04-01T00:53:55;1.52;;;0.93;;
12290;SDS011;6208;48.956;9.076;2023-04-01T00:56:45;1.77;;;1.25;;
12290;SDS011;6208;48.956;9.076;2023-04-01T00:59:34;2.20;;;0.80;;
12290;SDS011;6208;48.956;9.076;2023-04-01T01:02:22;1.20;;;0.90;;
12290;SDS011;6208;48.956;9.076;2023-04-01T01:05:07;1.77;;;1.02;;
12290;SDS011;6208;48.956;9.076;2023-04-01T01:07:59;2.63;;;0.82;;
12290;SDS011;6208;48.956;9.076;2023-04-01T01:10:45;1.85;;;0.95;;
12290;SDS011;6208;48.956;9.076;2023-04-01T01:13:41;1.30;;;0.90;;
12290;SDS011;6208;48.956;9.076;2023-04-01T01:16:36;2.10;;;1.05;;
12290;SDS011;6208;48.956;9.076;2023-04-01T01:19:40;2.05;;;0.93;;
12290;SDS011;6208;48.956;9.076;2023-04-01T01:22:58;4.32;;;1.05;;
12290;SDS011;6208;48.956;9.076;2023-04-01T01:35:20;1.13;;;0.70;;
12290;SDS011;6208;48.956;9.076;2023-04-01T01:38:25;1.17;;;0.63;;
12290;SDS011;6208;48.956;9.076;2023-04-01T01:41:12;3.17;;;0.80;;
12290;SDS011;6208;48.956;9.076;2023-04-01T01:43:59;3.20;;;1.10;;
12290;SDS011;6208;48.956;9.076;2023-04-01T01:46:48;2.90;;;1.20;;
12290;SDS011;6208;48.956;9.076;2023-04-01T01:49:33;1.10;;;0.90;;
12290;SDS011;6208;48.956;9.076;2023-04-01T01:52:19;1.65;;;1.08;;
12290;SDS011;6208;48.956;9.076;2023-04-01T01:55:24;1.85;;;0.70;;
12290;SDS011;6208;48.956;9.076;2023-04-01T02:01:12;0.88;;;0.55;;
12290;SDS011;6208;48.956;9.076;2023-04-01T02:03:59;0.85;;;0.70;;
12290;SDS011;6208;48.956;9.076;2023-04-01T02:06:52;2.25;;;1.42;;
12290;SDS011;6208;48.956;9.076;2023-04-01T02:09:39;1.83;;;0.80;;
12290;SDS011;6208;48.956;9.076;2023-04-01T02:12:24;2.65;;;0.65;;
12290;SDS011;6208;48.956;9.076;2023-04-01T02:15:09;2.05;;;0.77;;
12290;SDS011;6208;48.956;9.076;2023-04-01T02:17:56;1.83;;;0.93;;
12290;SDS011;6208;48.956;9.076;2023-04-01T02:20:41;1.80;;;0.75;;
12290;SDS011;6208;48.956;9.076;2023-04-01T02:23:28;2.85;;;1.20;;
12290;SDS011;6208;48.956;9.076;2023-04-01T02:26:12;1.38;;;1.00;;
12290;SDS011;6208;48.956;9.076;2023-04-01T02:28:58;1.80;;;0.90;;
12290;SDS011;6208;48.956;9.076;2023-04-01T02:31:44;1.83;;;0.60;;
12290;SDS011;6208;48.956;9.076;2023-04-01T02:34:29;2.10;;;1.08;;
12290;SDS011;6208;48.956;9.076;2023-04-01T02:37:14;3.63;;;1.08;;
12290;SDS011;6208;48.956;9.076;2023-04-01T02:39:59;1.65;;;0.60;;
12290;SDS011;6208;48.956;9.076;2023-04-01T02:42:44;1.65;;;0.80;;
12290;SDS011;6208;48.956;9.076;2023-04-01T02:45:29;1.80;;;0.88;;
12290;SDS011;6208;48.956;9.076;2023-04-01T02:48:13;1.23;;;0.73;;
12290;SDS011;6208;48.956;9.076;2023-04-01T02:50:57;1.35;;;0.80;;
12290;SDS011;6208;48.956;9.076;2023-04-01T02:53:41;2.20;;;0.50;;
12290;SDS011;6208;48.956;9.076;2023-04-01T02:56:25;0.88;;;0.68;;
12290;SDS011;6208;48.956;9.076;2023-04-01T02:59:10;0.95;;;0.70;;
12290;SDS011;6208;48.956;9.076;2023-04-01T03:01:54;0.93;;;0.60;;
12290;SDS011;6208;48.956;9.076;2023-04-01T03:04:38;1.75;;;0.70;;
12290;SDS011;6208;48.956;9.076;2023-04-01T03:07:23;1.73;;;0.65;;
12290;SDS011;6208;48.956;9.076;2023-04-01T03:10:07;0.63;;;0.40;;
12290;SDS011;6208;48.956;9.076;2023-04-01T03:12:51;1.85;;;0.70;;
12290;SDS011;6208;48.956;9.076;2023-04-01T03:15:35;0.70;;;0.52;;
12290;SDS011;6208;48.956;9.076;2023-04-01T03:18:20;2.25;;;0.60;;
12290;SDS011;6208;48.956;9.076;2023-04-01T03:21:15;1.75;;;0.70;;
12290;SDS011;6208;48.956;9.076;2023-04-01T03:24:00;1.38;;;0.80;;
12290;SDS011;6208;48.956;9.076;2023-04-01T03:26:45;2.47;;;0.60;;
12290;SDS011;6208;48.956;9.076;2023-04-01T03:29:29;1.48;;;0.70;;
12290;SDS011;6208;48.956;9.076;2023-04-01T03:32:13;1.27;;;0.57;;
12290;SDS011;6208;48.956;9.076;2023-04-01T03:34:58;1.90;;;0.68;;
12290;SDS011;6208;48.956;9.076;2023-04-01T03:37:43;0.95;;;0.40;;
12290;SDS011;6208;48.956;9.076;2023-04-01T03:40:27;1.58;;;0.77;;
12290;SDS011;6208;48.956;9.076;2023-04-01T03:43:11;1.00;;;0.65;;
12290;SDS011;6208;48.956;9.076;2023-04-01T03:45:55;0.98;;;0.57;;
12290;SDS011;6208;48.956;9.076;2023-04-01T03:48:41;0.75;;;0.60;;
12290;SDS011;6208;48.956;9.076;2023-04-01T03:51:25;1.58;;;0.82;;
12290;SDS011;6208;48.956;9.076;2023-04-01T03:54:10;1.48;;;0.77;;
12290;SDS011;6208;48.956;9.076;2023-04-01T03:56:54;0.40;;;0.40;;
12290;SDS011;6208;48.956;9.076;2023-04-01T03:59:41;1.38;;;0.70;;
12290;SDS011;6208;48.956;9.076;2023-04-01T04:02:25;1.85;;;0.68;;
12290;SDS011;6208;48.956;9.076;2023-04-01T04:05:09;1.27;;;0.85;;
12290;SDS011;6208;48.956;9.076;2023-04-01T04:07:53;0.88;;;0.50;;
12290;SDS011;6208;48.956;9.076;2023-04-01T04:10:37;1.77;;;0.73;;
12290;SDS011;6208;48.956;9.076;2023-04-01T04:13:22;0.68;;;0.60;;
12290;SDS011;6208;48.956;9.076;2023-04-01T04:16:06;1.08;;;0.60;;
12290;SDS011;6208;48.956;9.076;2023-04-01T04:18:50;0.57;;;0.57;;
12290;SDS011;6208;48.956;9.076;2023-04-01T04:21:34;0.50;;;0.50;;
12290;SDS011;6208;48.956;9.076;2023-04-01T04:24:18;3.13;;;0.73;;
12290;SDS011;6208;48.956;9.076;2023-04-01T04:27:02;1.52;;;0.60;;
12290;SDS011;6208;48.956;9.076;2023-04-01T04:29:47;1.00;;;0.60;;
12290;SDS011;6208;48.956;9.076;2023-04-01T04:32:31;1.02;;;0.80;;
12290;SDS011;6208;48.956;9.076;2023-04-01T04:35:15;0.88;;;0.40;;
12290;SDS011;6208;48.956;9.076;2023-04-01T04:38:00;0.55;;;0.55;;
12290;SDS011;6208;48.956;9.076;2023-04-01T04:40:44;3.15;;;0.73;;
12290;SDS011;6208;48.956;9.076;2023-04-01T04:43:28;0.65;;;0.50;;
12290;SDS011;6208;48.956;9.076;2023-04-01T04:46:12;1.85;;;0.57;;
12290;SDS011;6208;48.956;9.076;2023-04-01T04:48:56;1.33;;;0.77;;
12290;SDS011;6208;48.956;9.076;2023-04-01T04:51:40;0.98;;;0.70;;
12290;SDS011;6208;48.956;9.076;2023-04-01T04:54:25;2.85;;;0.90;;
12290;SDS011;6208;48.956;9.076;2023-04-01T04:57:09;2.15;;;1.05;;
12290;SDS011;6208;48.956;9.076;2023-04-01T04:59:53;1.00;;;0.77;;
12290;SDS011;6208;48.956;9.076;2023-04-01T05:02:37;2.05;;;0.80;;
12290;SDS011;6208;48.956;9.076;2023-04-01T05:05:22;0.60;;;0.60;;
12290;SDS011;6208;48.956;9.076;2023-04-01T05:08:07;2.97;;;1.45;;
12290;SDS011;6208;48.956;9.076;2023-04-01T05:10:51;1.13;;;0.70;;
12290;SDS011;6208;48.956;9.076;2023-04-01T05:13:35;1.33;;;0.80;;
12290;SDS011;6208;48.956;9.076;2023-04-01T05:16:20;0.93;;;0.63;;
12290;SDS011;6208;48.956;9.076;2023-04-01T05:19:04;1.98;;;0.57;;
12290;SDS011;6208;48.956;9.076;2023-04-01T05:21:48;2.72;;;0.47;;
12290;SDS011;6208;48.956;9.076;2023-04-01T05:24:33;0.90;;;0.75;;
12290;SDS011;6208;48.956;9.076;2023-04-01T05:27:18;0.88;;;0.70;;
12290;SDS011;6208;48.956;9.076;2023-04-01T05:30:02;1.40;;;0.80;;
12290;SDS011;6208;48.956;9.076;2023-04-01T05:32:47;2.47;;;0.95;;
12290;SDS011;6208;48.956;9.076;2023-04-01T05:35:31;1.10;;;0.95;;
12290;SDS011;6208;48.956;9.076;2023-04-01T05:38:15;2.38;;;0.95;;
12290;SDS011;6208;48.956;9.076;2023-04-01T05:41:00;2.78;;;1.35;;
12290;SDS011;6208;48.956;9.076;2023-04-01T05:43:46;2.92;;;0.80;;
12290;SDS011;6208;48.956;9.076;2023-04-01T05:46:31;1.85;;;0.93;;
12290;SDS011;6208;48.956;9.076;2023-04-01T05:49:15;1.10;;;1.00;;
12290;SDS011;6208;48.956;9.076;2023-04-01T05:52:00;2.47;;;1.00;;
12290;SDS011;6208;48.956;9.076;2023-04-01T05:54:44;1.58;;;0.88;;
12290;SDS011;6208;48.956;9.076;2023-04-01T05:57:28;1.38;;;0.88;;
12290;SDS011;6208;48.956;9.076;2023-04-01T06:00:12;1.80;;;0.50;;
12290;SDS011;6208;48.956;9.076;2023-04-01T06:03:00;1.80;;;0.77;;
12290;SDS011;6208;48.956;9.076;2023-04-01T06:05:44;1.70;;;0.60;;
12290;SDS011;6208;48.956;9.076;2023-04-01T06:08:29;1.90;;;0.85;;
12290;SDS011;6208;48.956;9.076;2023-04-01T06:20:02;0.50;;;0.50;;
12290;SDS011;6208;48.956;9.076;2023-04-01T06:23:10;2.90;;;1.13;;
12290;SDS011;6208;48.956;9.076;2023-04-01T06:32:19;1.33;;;1.00;;
12290;SDS011;6208;48.956;9.076;2023-04-01T06:44:43;1.25;;;0.70;;
12290;SDS011;6208;48.956;9.076;2023-04-01T06:57:03;0.70;;;0.50;;
12290;SDS011;6208;48.956;9.076;2023-04-01T07:00:10;1.05;;;0.73;;
12290;SDS011;6208;48.956;9.076;2023-04-01T07:06:05;3.38;;;2.08;;
12290;SDS011;6208;48.956;9.076;2023-04-01T07:08:53;2.40;;;2.03;;
12290;SDS011;6208;48.956;9.076;2023-04-01T07:11:40;3.70;;;1.38;;
12290;SDS011;6208;48.956;9.076;2023-04-01T07:14:29;2.15;;;1.98;;
12290;SDS011;6208;48.956;9.076;2023-04-01T07:17:23;2.33;;;2.13;;
12290;SDS011;6208;48.956;9.076;2023-04-01T07:23:15;1.30;;;1.20;;
12290;SDS011;6208;48.956;9.076;2023-04-01T07:26:09;3.30;;;3.00;;
12290;SDS011;6208;48.956;9.076;2023-04-01T07:29:09;4.10;;;3.78;;
12290;SDS011;6208;48.956;9.076;2023-04-01T07:38:11;2.60;;;2.40;;
12290;SDS011;6208;48.956;9.076;2023-04-01T07:41:22;7.05;;;4.78;;
12290;SDS011;6208;48.956;9.076;2023-04-01T07:44:35;1.70;;;1.60;;
12290;SDS011;6208;48.956;9.076;2023-04-01T07:47:41;1.17;;;1.08;;
12290;SDS011;6208;48.956;9.076;2023-04-01T08:00:19;0.77;;;0.77;;
12290;SDS011;6208;48.956;9.076;2023-04-01T08:12:12;1.92;;;0.60;;
12290;SDS011;6208;48.956;9.076;2023-04-01T08:15:33;0.50;;;0.50;;
12290;SDS011;6208;48.956;9.076;2023-04-01T08:21:41;1.05;;;0.70;;
12290;SDS011;6208;48.956;9.076;2023-04-01T08:24:42;0.55;;;0.43;;
12290;SDS011;6208;48.956;9.076;2023-04-01T08:30:23;0.40;;;0.40;;
12290;SDS011;6208;48.956;9.076;2023-04-01T08:33:17;0.50;;;0.50;;
12290;SDS011;6208;48.956;9.076;2023-04-01T08:39:01;2.78;;;0.50;;
12290;SDS011;6208;48.956;9.076;2023-04-01T09:21:51;0.50;;;0.50;;
12290;SDS011;6208;48.956;9.076;2023-04-01T09:27:45;0.60;;;0.60;;
12290;SDS011;6208;48.956;9.076;2023-04-01T09:30:48;0.40;;;0.40;;
12290;SDS011;6208;48.956;9.076;2023-04-01T09:37:16;0.70;;;0.70;;
12290;SDS011;6208;48.956;9.076;2023-04-01T09:43:04;0.43;;;0.30;;
12290;SDS011;6208;48.956;9.076;2023-04-01T09:49:13;1.17;;;0.30;;
12290;SDS011;6208;48.956;9.076;2023-04-01T10:07:51;0.20;;;0.20;;
12290;SDS011;6208;48.956;9.076;2023-04-01T10:11:27;0.35;;;0.35;;
12290;SDS011;6208;48.956;9.076;2023-04-01T10:20:44;0.45;;;0.45;;
12290;SDS011;6208;48.956;9.076;2023-04-01T10:26:44;0.47;;;0.47;;
12290;SDS011;6208;48.956;9.076;2023-04-01T10:42:01;0.20;;;0.20;;
12290;SDS011;6208;48.956;9.076;2023-04-01T10:57:46;0.20;;;0.20;;
12290;SDS011;6208;48.956;9.076;2023-04-01T11:01:13;0.22;;;0.22;;
12290;SDS011;6208;48.956;9.076;2023-04-01T11:22:59;0.60;;;0.60;;
12290;SDS011;6208;48.956;9.076;2023-04-01T11:32:26;0.20;;;0.20;;
12290;SDS011;6208;48.956;9.076;2023-04-01T11:44:22;0.30;;;0.30;;
12290;SDS011;6208;48.956;9.076;2023-04-01T11:47:28;1.48;;;0.30;;
12290;SDS011;6208;48.956;9.076;2023-04-01T11:50:39;0.22;;;0.22;;
12290;SDS011;6208;48.956;9.076;2023-04-01T11:53:52;0.30;;;0.30;;
12290;SDS011;6208;48.956;9.076;2023-04-01T12:00:02;0.38;;;0.38;;
12290;SDS011;6208;48.956;9.076;2023-04-01T12:03:17;0.30;;;0.30;;
12290;SDS011;6208;48.956;9.076;2023-04-01T12:06:25;0.30;;;0.30;;
12290;SDS011;6208;48.956;9.076;2023-04-01T12:09:33;0.40;;;0.40;;
12290;SDS011;6208;48.956;9.076;2023-04-01T12:15:16;0.35;;;0.35;;
12290;SDS011;6208;48.956;9.076;2023-04-01T12:18:46;0.20;;;0.20;;
12290;SDS011;6208;48.956;9.076;2023-04-01T12:21:44;0.30;;;0.30;;
12290;SDS011;6208;48.956;9.076;2023-04-01T12:24:46;0.22;;;0.20;;
12290;SDS011;6208;48.956;9.076;2023-04-01T12:30:56;0.30;;;0.30;;
12290;SDS011;6208;48.956;9.076;2023-04-01T12:34:07;0.20;;;0.20;;
12290;SDS011;6208;48.956;9.076;2023-04-01T12:42:59;0.20;;;0.20;;
12290;SDS011;6208;48.956;9.076;2023-04-01T12:52:10;0.20;;;0.20;;
12290;SDS011;6208;48.956;9.076;2023-04-01T12:55:21;0.30;;;0.30;;
12290;SDS011;6208;48.956;9.076;2023-04-01T13:14:22;0.52;;;0.30;;
12290;SDS011;6208;48.956;9.076;2023-04-01T13:17:18;0.30;;;0.30;;
12290;SDS011;6208;48.956;9.076;2023-04-01T13:20:19;0.20;;;0.20;;
12290;SDS011;6208;48.956;9.076;2023-04-01T13:24:02;0.50;;;0.50;;
12290;SDS011;6208;48.956;9.076;2023-04-01T13:26:34;0.40;;;0.40;;
12290;SDS011;6208;48.956;9.076;2023-04-01T13:29:37;0.30;;;0.30;;
12290;SDS011;6208;48.956;9.076;2023-04-01T13:35:41;0.38;;;0.30;;
12290;SDS011;6208;48.956;9.076;2023-04-01T13:41:29;0.30;;;0.30;;
12290;SDS011;6208;48.956;9.076;2023-04-01T13:51:02;0.30;;;0.30;;
12290;SDS011;6208;48.956;9.076;2023-04-01T14:16:12;0.40;;;0.40;;
12290;SDS011;6208;48.956;9.076;2023-04-01T14:22:58;1.08;;;0.20;;
12290;SDS011;6208;48.956;9.076;2023-04-01T14:26:10;0.20;;;0.20;;
12290;SDS011;6208;48.956;9.076;2023-04-01T14:29:24;0.47;;;0.32;;
12290;SDS011;6208;48.956;9.076;2023-04-01T14:35:37;0.90;;;0.32;;
12290;SDS011;6208;48.956;9.076;2023-04-01T14:38:30;1.95;;;0.40;;
12290;SDS011;6208;48.956;9.076;2023-04-01T14:41:30;0.75;;;0.30;;
12290;SDS011;6208;48.956;9.076;2023-04-01T14:50:12;0.30;;;0.30;;
12290;SDS011;6208;48.956;9.076;2023-04-01T14:56:07;0.75;;;0.40;;
12290;SDS011;6208;48.956;9.076;2023-04-01T14:58:52;0.30;;;0.30;;
12290;SDS011;6208;48.956;9.076;2023-04-01T15:04:52;0.45;;;0.20;;
12290;SDS011;6208;48.956;9.076;2023-04-01T15:08:01;0.30;;;0.30;;
12290;SDS011;6208;48.956;9.076;2023-04-01T15:17:31;0.30;;;0.30;;
12290;SDS011;6208;48.956;9.076;2023-04-01T15:24:03;0.43;;;0.20;;
12290;SDS011;6208;48.956;9.076;2023-04-01T15:36:26;0.30;;;0.30;;
12290;SDS011;6208;48.956;9.076;2023-04-01T15:39:24;0.30;;;0.30;;
12290;SDS011;6208;48.956;9.076;2023-04-01T15:42:37;0.30;;;0.30;;
12290;SDS011;6208;48.956;9.076;2023-04-01T15:51:54;0.40;;;0.40;;
12290;SDS011;6208;48.956;9.076;2023-04-01T16:07:10;1.05;;;0.95;;
12290;SDS011;6208;48.956;9.076;2023-04-01T16:16:47;1.45;;;0.60;;
12290;SDS011;6208;48.956;9.076;2023-04-01T16:25:51;0.40;;;0.40;;
12290;SDS011;6208;48.956;9.076;2023-04-01T16:38:31;0.90;;;0.82;;
12290;SDS011;6208;48.956;9.076;2023-04-01T16:41:38;1.08;;;0.82;;
12290;SDS011;6208;48.956;9.076;2023-04-01T16:44:30;0.93;;;0.65;;
12290;SDS011;6208;48.956;9.076;2023-04-01T16:47:32;1.45;;;0.68;;
12290;SDS011;6208;48.956;9.076;2023-04-01T16:50:23;0.50;;;0.50;;
12290;SDS011;6208;48.956;9.076;2023-04-01T16:58:56;1.65;;;0.50;;
12290;SDS011;6208;48.956;9.076;2023-04-01T17:01:52;0.75;;;0.75;;
12290;SDS011;6208;48.956;9.076;2023-04-01T17:07:41;0.63;;;0.52;;
12290;SDS011;6208;48.956;9.076;2023-04-01T17:14:21;0.80;;;0.60;;
12290;SDS011;6208;48.956;9.076;2023-04-01T17:16:54;1.13;;;0.90;;
12290;SDS011;6208;48.956;9.076;2023-04-01T17:26:04;1.42;;;1.10;;
12290;SDS011;6208;48.956;9.076;2023-04-01T17:28:52;1.20;;;0.65;;
12290;SDS011;6208;48.956;9.076;2023-04-01T17:37:56;0.60;;;0.60;;
12290;SDS011;6208;48.956;9.076;2023-04-01T17:43:47;0.60;;;0.60;;
12290;SDS011;6208;48.956;9.076;2023-04-01T17:46:50;1.55;;;0.60;;
12290;SDS011;6208;48.956;9.076;2023-04-01T17:53:11;0.50;;;0.50;;
12290;SDS011;6208;48.956;9.076;2023-04-01T17:59:20;1.23;;;1.13;;
12290;SDS011;6208;48.956;9.076;2023-04-01T18:05:26;0.50;;;0.50;;
12290;SDS011;6208;48.956;9.076;2023-04-01T18:08:26;1.45;;;0.60;;
12290;SDS011;6208;48.956;9.076;2023-04-01T18:11:34;2.63;;;2.42;;
12290;SDS011;6208;48.956;9.076;2023-04-01T18:27:32;0.60;;;0.60;;
12290;SDS011;6208;48.956;9.076;2023-04-01T18:30:26;0.68;;;0.68;;
12290;SDS011;6208;48.956;9.076;2023-04-01T18:39:18;0.77;;;0.77;;
12290;SDS011;6208;48.956;9.076;2023-04-01T18:48:15;0.60;;;0.60;;
12290;SDS011;6208;48.956;9.076;2023-04-01T18:57:15;2.53;;;1.23;;
12290;SDS011;6208;48.956;9.076;2023-04-01T19:00:05;1.50;;;0.68;;
12290;SDS011;6208;48.956;9.076;2023-04-01T19:06:47;1.80;;;1.70;;
12290;SDS011;6208;48.956;9.076;2023-04-01T19:09:45;2.40;;;0.70;;
12290;SDS011;6208;48.956;9.076;2023-04-01T19:12:37;2.00;;;0.90;;
12290;SDS011;6208;48.956;9.076;2023-04-01T19:21:41;1.20;;;1.10;;
12290;SDS011;6208;48.956;9.076;2023-04-01T19:27:41;1.45;;;0.98;;
12290;SDS011;6208;48.956;9.076;2023-04-01T19:30:39;1.00;;;0.90;;
12290;SDS011;6208;48.956;9.076;2023-04-01T19:36:29;1.33;;;1.23;;
12290;SDS011;6208;48.956;9.076;2023-04-01T19:46:19;1.70;;;0.98;;
12290;SDS011;6208;48.956;9.076;2023-04-01T20:01:34;2.42;;;1.25;;
12290;SDS011;6208;48.956;9.076;2023-04-01T20:04:42;1.90;;;1.63;;
12290;SDS011;6208;48.956;9.076;2023-04-01T20:13:19;1.23;;;0.93;;
12290;SDS011;6208;48.956;9.076;2023-04-01T20:16:35;1.67;;;0.93;;
12290;SDS011;6208;48.956;9.076;2023-04-01T20:19:41;2.60;;;1.50;;
12290;SDS011;6208;48.956;9.076;2023-04-01T20:28:20;1.75;;;1.60;;
12290;SDS011;6208;48.956;9.076;2023-04-01T20:34:52;1.63;;;1.48;;
12290;SDS011;6208;48.956;9.076;2023-04-01T20:38:32;1.63;;;1.52;;
12290;SDS011;6208;48.956;9.076;2023-04-01T20:40:41;1.92;;;1.23;;
12290;SDS011;6208;48.956;9.076;2023-04-01T20:47:11;1.60;;;0.80;;
12290;SDS011;6208;48.956;9.076;2023-04-01T20:52:41;1.70;;;1.60;;
12290;SDS011;6208;48.956;9.076;2023-04-01T21:08:44;2.10;;;1.10;;
12290;SDS011;6208;48.956;9.076;2023-04-01T21:27:33;2.53;;;0.90;;
12290;SDS011;6208;48.956;9.076;2023-04-01T21:42:32;1.45;;;0.95;;
12290;SDS011;6208;48.956;9.076;2023-04-01T21:45:56;1.23;;;1.08;;
12290;SDS011;6208;48.956;9.076;2023-04-01T21:49:09;1.20;;;0.80;;
12290;SDS011;6208;48.956;9.076;2023-04-01T22:05:22;2.17;;;0.60;;
12290;SDS011;6208;48.956;9.076;2023-04-01T22:11:23;0.85;;;0.73;;
12290;SDS011;6208;48.956;9.076;2023-04-01T22:17:26;1.95;;;0.98;;
12290;SDS011;6208;48.956;9.076;2023-04-01T22:32:20;0.60;;;0.60;;
12290;SDS011;6208;48.956;9.076;2023-04-01T22:35:19;0.82;;;0.65;;
12290;SDS011;6208;48.956;9.076;2023-04-01T22:41:53;0.80;;;0.80;;
12290;SDS011;6208;48.956;9.076;2023-04-01T22:48:16;0.63;;;0.63;;
12290;SDS011;6208;48.956;9.076;2023-04-01T22:51:15;1.10;;;1.00;;
12290;SDS011;6208;48.956;9.076;2023-04-01T22:54:21;0.60;;;0.60;;
12290;SDS011;6208;48.956;9.076;2023-04-01T23:00:16;1.13;;;0.90;;
12290;SDS011;6208;48.956;9.076;2023-04-01T23:03:11;0.98;;;0.80;;
12290;SDS011;6208;48.956;9.076;2023-04-01T23:06:05;1.95;;;0.70;;
12290;SDS011;6208;48.956;9.076;2023-04-01T23:09:04;0.70;;;0.70;;
12290;SDS011;6208;48.956;9.076;2023-04-01T23:12:02;0.98;;;0.95;;
12290;SDS011;6208;48.956;9.076;2023-04-01T23:15:00;0.70;;;0.70;;
12290;SDS011;6208;48.956;9.076;2023-04-01T23:20:54;0.60;;;0.60;;
12290;SDS011;6208;48.956;9.076;2023-04-01T23:26:50;0.52;;;0.52;;
12290;SDS011;6208;48.956;9.076;2023-04-01T23:29:39;0.88;;;0.82;;
12290;SDS011;6208;48.956;9.076;2023-04-01T23:32:26;0.55;;;0.52;;
12290;SDS011;6208;48.956;9.076;2023-04-01T23:35:11;0.60;;;0.60;;
12290;SDS011;6208;48.956;9.076;2023-04-01T23:38:00;0.63;;;0.63;;
12290;SDS011;6208;48.956;9.076;2023-04-01T23:40:46;0.70;;;0.70;;
12290;SDS011;6208;48.956;9.076;2023-04-01T23:43:36;0.93;;;0.50;;
12290;SDS011;6208;48.956;9.076;2023-04-01T23:46:24;0.50;;;0.50;;
12290;SDS011;6208;48.956;9.076;2023-04-01T23:49:11;4.85;;;0.90;;
12290;SDS011;6208;48.956;9.076;2023-04-01T23:52:03;0.38;;;0.38;;
12290;SDS011;6208;48.956;9.076;2023-04-01T23:55:14;0.60;;;0.60;;
12290;SDS011;6208;48.956;9.076;2023-04-01T23:58:24;1.88;;;0.85;;
